SVA630 OERK-VHHH
Flight info
| Callsign | SVA630 |
|---|---|
| Flight time | N/A |
| Altitude | 29000 |
| Route | RAPMA Y214 KUTNA M440 MIDGU/N0507F310 M440 TULBU N881 GIDAN/N0501F330 N881 RASKI L639 BPL A791 CEA B465 CTG A599 CTG25/N0495F350 A599 LINSO/K0917S1070 A599 POU R473 SIERA |
| Aircraft | B77L/H-SDE1E2E3FGHIJ2J3J4J5M1RWXY/LB1D1 |
Departure
| Time | 2026-05-07 11:38 |
|---|---|
| Airport | King Khalid International Airport (OERK) |
Arrival
| Time | N/A |
|---|---|
| Airport | Hong Kong International Airport (VHHH) |
| Time | Latitude | Longitude | Altitude | Speed | Heading |
|---|---|---|---|---|---|
| 2026-05-07 11:12 | 24.95053 | 46.71273 | 2063 ft | 0 kts | 240° |
| 2026-05-07 11:26 | 24.95058 | 46.71283 | 2036 ft | 3 kts | 240° |
| 2026-05-07 11:26 | 24.95067 | 46.71301 | 2042 ft | 3 kts | 240° |
| 2026-05-07 11:26 | 24.95075 | 46.71319 | 2041 ft | 3 kts | 258° |
| 2026-05-07 11:26 | 24.95076 | 46.71340 | 2039 ft | 3 kts | 278° |
| 2026-05-07 11:27 | 24.95072 | 46.71359 | 2042 ft | 2 kts | 297° |
| 2026-05-07 11:27 | 24.95062 | 46.71376 | 2040 ft | 3 kts | 316° |
| 2026-05-07 11:27 | 24.95054 | 46.71383 | 2045 ft | 0 kts | 328° |
| 2026-05-07 11:29 | 24.95076 | 46.71369 | 2045 ft | 13 kts | 329° |
| 2026-05-07 11:30 | 24.95176 | 46.71303 | 2042 ft | 16 kts | 331° |
| 2026-05-07 11:30 | 24.95268 | 46.71247 | 2044 ft | 15 kts | 331° |
| 2026-05-07 11:30 | 24.95357 | 46.71205 | 2044 ft | 14 kts | 357° |
| 2026-05-07 11:30 | 24.95401 | 46.71225 | 2042 ft | 0 kts | 35° |
| 2026-05-07 11:31 | 24.95428 | 46.71247 | 2044 ft | 11 kts | 27° |
| 2026-05-07 11:31 | 24.95553 | 46.71206 | 2047 ft | 23 kts | 332° |
| 2026-05-07 11:31 | 24.95610 | 46.71170 | 2046 ft | 0 kts | 331° |
| 2026-05-07 11:31 | 24.95625 | 46.71160 | 2046 ft | 12 kts | 330° |
| 2026-05-07 11:32 | 24.96055 | 46.70891 | 2049 ft | 45 kts | 329° |
| 2026-05-07 11:32 | 24.96293 | 46.70743 | 2049 ft | 38 kts | 330° |
| 2026-05-07 11:32 | 24.96527 | 46.70595 | 2049 ft | 39 kts | 330° |
| 2026-05-07 11:33 | 24.96766 | 46.70446 | 2046 ft | 40 kts | 329° |
| 2026-05-07 11:33 | 24.97006 | 46.70290 | 2054 ft | 40 kts | 329° |
| 2026-05-07 11:33 | 24.97194 | 46.70172 | 2051 ft | 27 kts | 330° |
| 2026-05-07 11:33 | 24.97330 | 46.70084 | 2048 ft | 21 kts | 328° |
| 2026-05-07 11:34 | 24.97466 | 46.69997 | 2056 ft | 12 kts | 332° |
| 2026-05-07 11:34 | 24.97536 | 46.69987 | 2051 ft | 9 kts | 19° |
| 2026-05-07 11:34 | 24.97571 | 46.70022 | 2053 ft | 0 kts | 55° |
| 2026-05-07 11:36 | 24.97596 | 46.70074 | 2052 ft | 15 kts | 62° |
| 2026-05-07 11:36 | 24.97619 | 46.70192 | 2048 ft | 16 kts | 99° |
| 2026-05-07 11:36 | 24.97553 | 46.70287 | 2053 ft | 13 kts | 147° |
| 2026-05-07 11:36 | 24.97548 | 46.70290 | 2049 ft | 0 kts | 148° |
| 2026-05-07 11:37 | 24.97455 | 46.70350 | 2048 ft | 39 kts | 151° |
| 2026-05-07 11:37 | 24.97002 | 46.70639 | 2049 ft | 111 kts | 151° |
| 2026-05-07 11:38 | 24.96131 | 46.71211 | 2046 ft | 176 kts | 146° |
| 2026-05-07 11:38 | 24.94984 | 46.71931 | 2437 ft | 196 kts | 149° |
| 2026-05-07 11:38 | 24.93780 | 46.72640 | 3126 ft | 189 kts | 146° |
| 2026-05-07 11:38 | 24.92711 | 46.73391 | 3881 ft | 179 kts | 144° |
| 2026-05-07 11:39 | 24.91665 | 46.74185 | 4203 ft | 188 kts | 144° |
| 2026-05-07 11:39 | 24.90601 | 46.74999 | 4526 ft | 188 kts | 144° |
| 2026-05-07 11:39 | 24.89507 | 46.75856 | 4758 ft | 198 kts | 144° |
| 2026-05-07 11:39 | 24.88342 | 46.76773 | 4885 ft | 216 kts | 144° |
| 2026-05-07 11:40 | 24.87188 | 46.77934 | 5016 ft | 233 kts | 130° |
| 2026-05-07 11:40 | 24.86168 | 46.79330 | 5507 ft | 234 kts | 129° |
| 2026-05-07 11:40 | 24.85117 | 46.80816 | 5580 ft | 259 kts | 131° |
| 2026-05-07 11:40 | 24.83892 | 46.82284 | 5593 ft | 262 kts | 137° |
| 2026-05-07 11:41 | 24.82537 | 46.83703 | 5618 ft | 279 kts | 139° |
| 2026-05-07 11:41 | 24.81088 | 46.85186 | 5590 ft | 283 kts | 138° |
| 2026-05-07 11:41 | 24.79692 | 46.86623 | 5571 ft | 272 kts | 138° |
| 2026-05-07 11:41 | 24.78341 | 46.88023 | 5570 ft | 263 kts | 138° |
| 2026-05-07 11:42 | 24.77005 | 46.89413 | 5607 ft | 270 kts | 138° |
| 2026-05-07 11:42 | 24.75585 | 46.90893 | 5559 ft | 284 kts | 137° |
| 2026-05-07 11:42 | 24.74194 | 46.92356 | 5658 ft | 266 kts | 137° |
| 2026-05-07 11:42 | 24.72887 | 46.93741 | 6082 ft | 260 kts | 138° |
| 2026-05-07 11:43 | 24.71578 | 46.95125 | 6699 ft | 262 kts | 138° |
| 2026-05-07 11:43 | 24.70250 | 46.96528 | 7282 ft | 267 kts | 137° |
| 2026-05-07 11:43 | 24.68900 | 46.97952 | 7865 ft | 270 kts | 138° |
| 2026-05-07 11:43 | 24.67535 | 46.99392 | 8486 ft | 274 kts | 138° |
| 2026-05-07 11:44 | 24.66154 | 47.00849 | 9101 ft | 277 kts | 139° |
| 2026-05-07 11:44 | 24.64754 | 47.02328 | 9735 ft | 281 kts | 139° |
| 2026-05-07 11:44 | 24.63355 | 47.03804 | 10305 ft | 284 kts | 139° |
| 2026-05-07 11:44 | 24.61921 | 47.05316 | 10870 ft | 287 kts | 138° |
| 2026-05-07 11:45 | 24.60472 | 47.06844 | 11452 ft | 290 kts | 138° |
| 2026-05-07 11:45 | 24.59011 | 47.08384 | 12066 ft | 292 kts | 138° |
| 2026-05-07 11:45 | 24.57542 | 47.09934 | 12682 ft | 293 kts | 138° |
| 2026-05-07 11:45 | 24.56069 | 47.11488 | 13288 ft | 295 kts | 138° |
| 2026-05-07 11:46 | 24.54587 | 47.13051 | 13897 ft | 295 kts | 138° |
| 2026-05-07 11:46 | 24.53103 | 47.14615 | 14455 ft | 296 kts | 138° |
| 2026-05-07 11:46 | 24.51619 | 47.16178 | 15023 ft | 295 kts | 139° |
| 2026-05-07 11:46 | 24.50138 | 47.17738 | 15588 ft | 293 kts | 138° |
| 2026-05-07 11:47 | 24.48673 | 47.19283 | 16165 ft | 291 kts | 139° |